createdAt,value
2022-12-03T00:00:12.738Z,8.60
2022-12-03T00:02:39.719Z,8.73
2022-12-03T00:05:06.481Z,8.43
2022-12-03T00:07:33.221Z,9.20
2022-12-03T00:09:59.801Z,9.10
2022-12-03T00:12:26.510Z,8.23
2022-12-03T00:14:53.147Z,8.57
2022-12-03T00:17:19.789Z,8.40
2022-12-03T00:19:46.577Z,8.82
2022-12-03T00:22:13.102Z,8.98
2022-12-03T00:24:39.824Z,8.55
2022-12-03T00:27:06.557Z,8.68
2022-12-03T00:29:33.150Z,8.70
2022-12-03T00:31:59.745Z,7.97
2022-12-03T00:34:26.369Z,8.95
2022-12-03T00:36:53.020Z,9.73
2022-12-03T00:39:19.583Z,9.50
2022-12-03T00:41:46.082Z,8.07
2022-12-03T00:44:12.606Z,8.55
2022-12-03T00:46:39.548Z,8.40
2022-12-03T00:49:06.225Z,8.57
2022-12-03T00:51:32.846Z,8.95
2022-12-03T00:53:59.320Z,8.48
2022-12-03T00:56:25.925Z,8.63
2022-12-03T00:58:52.567Z,9.30
2022-12-03T01:01:19.310Z,9.57
2022-12-03T01:03:45.840Z,9.00
2022-12-03T01:06:12.508Z,8.73
2022-12-03T01:08:39.036Z,8.48
2022-12-03T01:11:25.712Z,9.43
2022-12-03T01:13:52.250Z,8.18
2022-12-03T01:16:18.875Z,9.27
2022-12-03T01:18:46.373Z,9.77
2022-12-03T01:21:12.959Z,8.63
2022-12-03T01:23:39.435Z,8.68
2022-12-03T01:26:06.019Z,7.38
2022-12-03T01:28:32.605Z,9.82
2022-12-03T01:31:17.479Z,10.05
2022-12-03T01:33:44.077Z,9.25
2022-12-03T01:36:10.643Z,8.15
2022-12-03T01:38:37.287Z,8.38
2022-12-03T01:41:07.250Z,8.57
2022-12-03T01:43:38.239Z,8.77
2022-12-03T01:46:04.959Z,8.50
2022-12-03T01:48:35.530Z,9.85
2022-12-03T01:51:02.357Z,8.73
2022-12-03T01:53:28.945Z,9.07
2022-12-03T01:55:55.726Z,8.73
2022-12-03T01:58:27.401Z,8.82
2022-12-03T02:00:54.129Z,9.95
2022-12-03T02:03:26.263Z,8.35
2022-12-03T02:05:53.525Z,9.20
2022-12-03T02:08:35.097Z,9.25
2022-12-03T02:11:05.484Z,9.05
2022-12-03T02:13:32.143Z,9.90
2022-12-03T02:15:58.785Z,9.05
2022-12-03T02:18:25.636Z,9.50
2022-12-03T02:21:05.317Z,8.90
2022-12-03T02:23:52.140Z,9.88
2022-12-03T02:26:18.921Z,9.38
2022-12-03T02:28:45.824Z,8.45
2022-12-03T02:31:12.481Z,9.07
2022-12-03T02:33:39.000Z,7.93
2022-12-03T02:36:06.011Z,8.70
2022-12-03T02:38:35.734Z,9.07
2022-12-03T02:41:09.199Z,9.05
2022-12-03T02:43:36.540Z,9.20
2022-12-03T02:46:04.997Z,9.45
2022-12-03T02:48:36.103Z,9.02
2022-12-03T02:51:06.333Z,9.07
2022-12-03T02:53:44.605Z,9.57
2022-12-03T02:56:16.083Z,9.23
2022-12-03T02:58:45.302Z,9.13
2022-12-03T03:01:12.476Z,9.55
2022-12-03T03:03:39.633Z,9.05
2022-12-03T03:06:07.613Z,9.00
2022-12-03T03:08:36.674Z,8.88
2022-12-03T03:11:03.770Z,8.85
2022-12-03T03:13:32.291Z,9.00
2022-12-03T03:15:59.710Z,9.55
2022-12-03T03:18:26.511Z,10.48
2022-12-03T03:20:53.616Z,8.75
2022-12-03T03:23:23.065Z,8.98
2022-12-03T03:26:06.669Z,9.90
2022-12-03T03:28:38.289Z,9.23
2022-12-03T03:31:06.682Z,9.60
2022-12-03T03:33:34.074Z,10.20
2022-12-03T03:36:01.293Z,9.15
2022-12-03T03:38:29.876Z,9.10
2022-12-03T03:40:57.917Z,10.18
2022-12-03T03:43:25.424Z,9.05
2022-12-03T03:45:53.402Z,9.50
2022-12-03T03:48:21.289Z,11.60
2022-12-03T03:50:49.095Z,9.23
2022-12-03T03:53:16.814Z,9.18
2022-12-03T03:55:43.522Z,9.88
2022-12-03T03:58:10.289Z,9.82
2022-12-03T04:00:40.186Z,10.85
2022-12-03T04:03:06.990Z,9.60
2022-12-03T04:05:33.716Z,9.50
2022-12-03T04:08:00.491Z,10.70
2022-12-03T04:10:45.636Z,10.65
2022-12-03T04:13:12.182Z,8.43
2022-12-03T04:15:38.741Z,10.23
2022-12-03T04:18:23.866Z,11.48
2022-12-03T04:20:50.405Z,9.38
2022-12-03T04:23:16.909Z,9.88
2022-12-03T04:26:01.906Z,11.13
2022-12-03T04:28:47.085Z,9.70
2022-12-03T04:31:34.716Z,10.35
2022-12-03T04:34:20.025Z,9.68
2022-12-03T04:36:47.161Z,9.07
2022-12-03T04:39:13.793Z,10.52
2022-12-03T04:41:40.398Z,10.13
2022-12-03T04:44:26.014Z,10.85
2022-12-03T04:46:52.813Z,10.73
2022-12-03T04:49:19.330Z,9.88
2022-12-03T04:51:46.116Z,9.60
2022-12-03T04:54:12.622Z,11.05
2022-12-03T04:56:39.207Z,9.77
2022-12-03T04:59:07.240Z,10.40
2022-12-03T05:01:38.684Z,10.23
2022-12-03T05:04:05.291Z,10.07
2022-12-03T05:06:31.936Z,10.30
2022-12-03T05:08:58.507Z,10.75
2022-12-03T05:11:25.024Z,11.10
2022-12-03T05:13:52.685Z,10.40
2022-12-03T05:16:19.455Z,11.02
2022-12-03T05:18:46.141Z,11.13
2022-12-03T05:21:12.717Z,10.55
2022-12-03T05:23:39.228Z,11.32
2022-12-03T05:26:06.094Z,10.95
2022-12-03T05:28:32.878Z,10.77
2022-12-03T05:30:59.608Z,10.93
2022-12-03T05:33:26.363Z,12.45
2022-12-03T05:35:52.809Z,11.75
2022-12-03T05:38:19.485Z,12.18
2022-12-03T05:40:46.000Z,10.73
2022-12-03T05:43:12.453Z,13.25
2022-12-03T05:45:41.058Z,12.18
2022-12-03T05:48:10.635Z,12.27
2022-12-03T05:50:38.503Z,11.38
2022-12-03T05:53:05.115Z,12.80
2022-12-03T05:55:32.142Z,12.25
2022-12-03T05:57:58.820Z,10.70
2022-12-03T06:00:31.992Z,10.68
2022-12-03T06:02:58.925Z,12.98
2022-12-03T06:05:25.976Z,11.48
2022-12-03T06:07:53.279Z,11.77
2022-12-03T06:10:22.893Z,11.73
2022-12-03T06:12:49.987Z,12.57
2022-12-03T06:15:17.159Z,12.55
2022-12-03T06:17:43.740Z,11.45
2022-12-03T06:20:14.152Z,11.88
2022-12-03T06:22:40.818Z,12.57
2022-12-03T06:25:07.752Z,11.35
2022-12-03T06:27:34.385Z,11.30
2022-12-03T06:30:01.024Z,12.13
2022-12-03T06:32:27.651Z,13.25
2022-12-03T06:34:54.558Z,9.45
2022-12-03T06:37:21.473Z,11.73
2022-12-03T06:39:48.014Z,11.55
2022-12-03T06:42:14.622Z,12.15
2022-12-03T06:44:41.274Z,12.25
2022-12-03T06:47:07.886Z,11.57
2022-12-03T06:49:34.816Z,11.50
2022-12-03T06:52:01.346Z,11.73
2022-12-03T06:54:27.906Z,11.15
2022-12-03T06:56:54.708Z,11.93
2022-12-03T06:59:21.278Z,11.43
2022-12-03T07:01:47.969Z,11.73
2022-12-03T07:04:14.534Z,11.77
2022-12-03T07:06:41.187Z,10.55
2022-12-03T07:09:07.857Z,11.10
2022-12-03T07:11:40.585Z,11.57
2022-12-03T07:14:09.241Z,11.65
2022-12-03T07:16:36.367Z,11.75
2022-12-03T07:19:05.157Z,11.10
2022-12-03T07:21:31.960Z,10.52
2022-12-03T07:23:58.504Z,11.82
2022-12-03T07:26:24.984Z,11.20
2022-12-03T07:28:51.806Z,11.85
2022-12-03T07:31:18.474Z,11.45
2022-12-03T07:33:45.121Z,11.52
2022-12-03T07:36:11.667Z,11.68
2022-12-03T07:38:38.281Z,10.93
2022-12-03T07:41:05.123Z,11.32
2022-12-03T07:43:31.667Z,11.63
2022-12-03T07:45:58.192Z,11.50
2022-12-03T07:48:24.874Z,11.95
2022-12-03T07:50:51.739Z,10.98
2022-12-03T07:53:18.206Z,11.63
2022-12-03T07:55:44.791Z,10.70
2022-12-03T07:58:11.348Z,11.60
2022-12-03T08:00:37.925Z,11.23
2022-12-03T08:03:04.574Z,11.70
2022-12-03T08:05:31.144Z,10.93
2022-12-03T08:07:59.862Z,11.82
2022-12-03T08:10:26.758Z,12.63
2022-12-03T08:12:59.444Z,12.77
2022-12-03T08:15:35.261Z,10.55
2022-12-03T08:18:19.895Z,10.77
2022-12-03T08:20:48.796Z,11.57
2022-12-03T08:23:18.777Z,11.50
2022-12-03T08:25:46.317Z,11.63
2022-12-03T08:28:19.811Z,11.48
2022-12-03T08:31:11.912Z,12.20
2022-12-03T08:33:40.065Z,10.73
2022-12-03T08:36:13.955Z,12.48
2022-12-03T08:38:40.638Z,11.40
2022-12-03T08:41:14.607Z,13.63
2022-12-03T08:43:43.786Z,11.95
2022-12-03T08:46:16.505Z,11.52
2022-12-03T08:48:48.700Z,11.45
2022-12-03T08:51:22.291Z,10.88
2022-12-03T08:54:01.561Z,13.20
2022-12-03T08:56:30.682Z,12.75
2022-12-03T08:59:21.908Z,11.13
2022-12-03T09:01:49.330Z,12.63
2022-12-03T09:04:18.850Z,11.93
2022-12-03T09:06:45.643Z,10.60
2022-12-03T09:09:12.277Z,12.32
2022-12-03T09:11:39.384Z,12.90
2022-12-03T09:14:06.151Z,11.63
2022-12-03T09:16:32.969Z,11.48
2022-12-03T09:18:59.693Z,10.68
2022-12-03T09:21:26.157Z,12.40
2022-12-03T09:23:52.767Z,12.27
2022-12-03T09:26:21.464Z,12.95
2022-12-03T09:28:48.412Z,13.07
2022-12-03T09:31:18.396Z,11.40
2022-12-03T09:33:44.879Z,11.88
2022-12-03T09:36:11.404Z,12.55
2022-12-03T09:38:39.184Z,12.02
2022-12-03T09:41:09.243Z,11.73
2022-12-03T09:44:02.831Z,11.80
2022-12-03T09:46:22.890Z,10.02
2022-12-03T09:48:50.077Z,11.60
2022-12-03T09:51:16.683Z,10.68
2022-12-03T09:53:43.425Z,10.20
2022-12-03T09:56:21.024Z,10.13
2022-12-03T09:58:48.363Z,9.95
2022-12-03T10:01:16.166Z,9.70
2022-12-03T10:03:49.488Z,9.73
2022-12-03T10:06:19.118Z,8.48
2022-12-03T10:08:53.569Z,8.70
2022-12-03T10:11:22.904Z,9.95
2022-12-03T10:13:49.646Z,9.65
2022-12-03T10:16:19.191Z,8.93
2022-12-03T10:18:49.961Z,10.05
2022-12-03T10:21:25.595Z,11.27
2022-12-03T10:24:18.144Z,7.72
2022-12-03T10:26:46.408Z,10.23
2022-12-03T10:29:28.361Z,9.50
2022-12-03T10:31:59.562Z,9.70
2022-12-03T10:34:31.282Z,10.55
2022-12-03T10:37:16.813Z,10.63
2022-12-03T10:40:09.189Z,10.88
2022-12-03T10:42:38.916Z,8.30
2022-12-03T10:45:19.578Z,11.25
2022-12-03T10:48:12.400Z,10.77
2022-12-03T10:50:50.879Z,13.02
2022-12-03T10:53:20.014Z,12.68
2022-12-03T10:55:48.360Z,8.65
2022-12-03T10:58:26.515Z,8.45
2022-12-03T11:00:56.493Z,11.60
2022-12-03T11:03:26.505Z,11.38
2022-12-03T11:05:55.243Z,10.70
2022-12-03T11:08:24.521Z,10.52
2022-12-03T11:11:01.397Z,9.27
2022-12-03T11:13:32.235Z,10.20
2022-12-03T11:16:00.854Z,10.50
2022-12-03T11:18:36.719Z,10.68
2022-12-03T11:21:10.479Z,11.85
2022-12-03T11:23:48.994Z,10.45
2022-12-03T11:26:29.639Z,11.38
2022-12-03T11:28:59.753Z,9.55
2022-12-03T11:31:48.050Z,8.57
2022-12-03T11:34:20.737Z,9.52
2022-12-03T11:37:18.228Z,9.80
2022-12-03T11:39:50.919Z,8.15
2022-12-03T11:42:26.487Z,9.23
2022-12-03T11:45:11.390Z,10.05
2022-12-03T11:47:41.832Z,7.50
2022-12-03T11:50:40.701Z,8.88
2022-12-03T11:53:24.783Z,8.85
2022-12-03T11:56:06.404Z,6.63
2022-12-03T11:58:34.512Z,7.75
2022-12-03T12:01:03.708Z,7.72
2022-12-03T12:03:34.410Z,8.27
2022-12-03T12:06:09.717Z,8.50
2022-12-03T12:08:40.780Z,7.53
2022-12-03T12:11:19.038Z,6.95
2022-12-03T12:13:45.591Z,8.55
2022-12-03T12:16:39.525Z,9.02
2022-12-03T12:19:32.621Z,8.00
2022-12-03T12:22:29.353Z,8.50
2022-12-03T12:24:57.246Z,7.63
2022-12-03T12:27:30.039Z,8.55
2022-12-03T12:29:59.076Z,8.65
2022-12-03T12:32:31.137Z,8.52
2022-12-03T12:35:06.075Z,8.27
2022-12-03T12:37:47.345Z,7.90
2022-12-03T12:40:18.452Z,8.70
2022-12-03T12:42:55.640Z,8.40
2022-12-03T12:45:27.056Z,9.27
2022-12-03T12:48:08.014Z,9.90
2022-12-03T12:50:34.743Z,8.07
2022-12-03T12:53:26.592Z,8.95
2022-12-03T12:56:30.583Z,9.25
2022-12-03T12:59:15.410Z,8.82
2022-12-03T13:01:43.917Z,8.38
2022-12-03T13:04:12.902Z,8.38
2022-12-03T13:06:40.168Z,9.10
2022-12-03T13:09:22.046Z,9.23
2022-12-03T13:12:07.521Z,8.70
2022-12-03T13:14:37.191Z,8.60
2022-12-03T13:17:19.273Z,9.95
2022-12-03T13:19:48.461Z,9.20
2022-12-03T13:22:19.884Z,9.32
2022-12-03T13:24:51.711Z,10.10
2022-12-03T13:27:18.405Z,8.23
2022-12-03T13:29:47.613Z,11.02
2022-12-03T13:32:18.743Z,10.52
2022-12-03T13:34:45.630Z,12.77
2022-12-03T13:37:25.438Z,15.38
2022-12-03T13:40:04.541Z,15.95
2022-12-03T13:42:42.437Z,13.30
2022-12-03T13:45:15.334Z,15.45
2022-12-03T13:47:53.781Z,10.57
2022-12-03T13:50:40.166Z,12.52
2022-12-03T13:53:21.532Z,13.20
2022-12-03T13:55:51.441Z,13.90
2022-12-03T13:58:18.306Z,13.30
2022-12-03T14:00:45.128Z,12.13
2022-12-03T14:03:11.810Z,13.45
2022-12-03T14:05:38.471Z,14.73
2022-12-03T14:08:06.220Z,17.40
2022-12-03T14:10:33.010Z,13.10
2022-12-03T14:12:59.490Z,14.52
2022-12-03T14:15:26.717Z,13.18
2022-12-03T14:17:53.679Z,12.77
2022-12-03T14:20:20.311Z,11.57
2022-12-03T14:22:46.823Z,12.88
2022-12-03T14:25:13.526Z,8.40
2022-12-03T14:27:40.106Z,11.50
2022-12-03T14:30:07.417Z,13.35
2022-12-03T14:32:33.912Z,12.60
2022-12-03T14:35:02.773Z,10.55
2022-12-03T14:39:58.330Z,9.70
2022-12-03T14:42:24.790Z,11.10
2022-12-03T14:44:52.056Z,10.88
2022-12-03T14:47:22.722Z,9.32
2022-12-03T14:49:50.047Z,9.43
2022-12-03T14:52:17.497Z,9.40
2022-12-03T14:54:44.697Z,9.55
2022-12-03T14:57:13.653Z,10.65
2022-12-03T14:59:41.592Z,11.30
2022-12-03T15:02:09.136Z,11.65
2022-12-03T15:04:35.803Z,11.38
2022-12-03T15:07:02.630Z,9.82
2022-12-03T15:09:29.176Z,8.85
2022-12-03T15:11:55.701Z,9.95
2022-12-03T15:14:22.274Z,9.48
2022-12-03T15:16:48.905Z,8.20
2022-12-03T15:19:15.568Z,10.02
2022-12-03T15:21:42.635Z,9.63
2022-12-03T15:24:10.829Z,9.88
2022-12-03T15:26:37.408Z,9.57
2022-12-03T15:29:03.975Z,9.60
2022-12-03T15:31:30.836Z,12.07
2022-12-03T15:33:57.407Z,11.13
2022-12-03T15:36:23.945Z,11.43
2022-12-03T15:38:50.604Z,10.95
2022-12-03T15:41:21.418Z,11.25
2022-12-03T15:43:48.901Z,12.73
2022-12-03T15:46:15.867Z,11.68
2022-12-03T15:48:43.489Z,12.82
2022-12-03T15:51:10.453Z,14.32
2022-12-03T15:53:37.258Z,14.63
2022-12-03T15:56:04.040Z,13.77
2022-12-03T15:58:30.772Z,15.02
2022-12-03T16:00:57.409Z,11.40
2022-12-03T16:03:24.316Z,13.20
2022-12-03T16:05:50.920Z,13.93
2022-12-03T16:08:18.451Z,13.38
2022-12-03T16:10:45.047Z,13.95
2022-12-03T16:13:11.568Z,13.55
2022-12-03T16:15:38.131Z,15.48
2022-12-03T16:18:04.983Z,14.00
2022-12-03T16:20:31.531Z,12.27
2022-12-03T16:22:58.005Z,14.93
2022-12-03T16:25:24.576Z,14.40
2022-12-03T16:27:51.253Z,14.43
2022-12-03T16:30:17.901Z,15.50
2022-12-03T16:32:44.479Z,13.85
2022-12-03T16:35:11.032Z,13.52
2022-12-03T16:37:37.664Z,13.60
2022-12-03T16:40:04.705Z,13.30
2022-12-03T16:42:31.175Z,14.77
2022-12-03T16:45:03.460Z,14.40
2022-12-03T16:47:33.878Z,14.02
2022-12-03T16:50:01.768Z,12.80
2022-12-03T16:52:28.495Z,14.02
2022-12-03T16:54:54.982Z,13.45
2022-12-03T16:57:21.921Z,14.20
2022-12-03T16:59:48.451Z,14.77
2022-12-03T17:02:15.030Z,13.40
2022-12-03T17:04:41.701Z,13.15
2022-12-03T17:07:08.244Z,13.32
2022-12-03T17:09:34.777Z,12.77
2022-12-03T17:12:01.288Z,11.43
2022-12-03T17:14:33.044Z,14.65
2022-12-03T17:17:00.282Z,14.35
2022-12-03T17:19:26.852Z,14.55
2022-12-03T17:21:54.282Z,13.98
2022-12-03T17:24:21.573Z,15.38
2022-12-03T17:26:50.965Z,12.88
2022-12-03T17:29:17.540Z,13.55
2022-12-03T17:31:44.072Z,13.18
2022-12-03T17:34:10.716Z,13.48
2022-12-03T17:36:37.281Z,12.93
2022-12-03T17:39:04.014Z,14.25
2022-12-03T17:41:30.583Z,13.90
2022-12-03T17:43:57.188Z,13.85
2022-12-03T17:46:23.935Z,13.65
2022-12-03T17:48:50.696Z,12.30
2022-12-03T17:51:19.265Z,14.27
2022-12-03T17:53:45.774Z,13.85
2022-12-03T17:56:12.517Z,16.80
2022-12-03T17:58:39.126Z,12.32
2022-12-03T18:01:07.860Z,13.18
2022-12-03T18:03:34.324Z,14.50
2022-12-03T18:06:00.869Z,14.13
2022-12-03T18:08:27.645Z,13.55
2022-12-03T18:10:57.104Z,13.10
2022-12-03T18:13:23.556Z,13.07
2022-12-03T18:15:50.083Z,13.30
2022-12-03T18:18:16.689Z,12.82
2022-12-03T18:20:43.230Z,12.85
2022-12-03T18:23:09.810Z,14.20
2022-12-03T18:25:36.434Z,13.63
2022-12-03T18:28:03.317Z,12.63
2022-12-03T18:30:29.906Z,12.77
2022-12-03T18:32:56.518Z,14.00
2022-12-03T18:35:23.124Z,14.90
2022-12-03T18:37:51.269Z,16.00
2022-12-03T18:40:22.670Z,13.35
2022-12-03T18:42:49.206Z,13.10
2022-12-03T18:45:16.384Z,13.68
2022-12-03T18:47:43.368Z,14.48
2022-12-03T18:50:10.880Z,13.85
2022-12-03T18:52:37.979Z,13.30
2022-12-03T18:55:05.427Z,13.43
2022-12-03T18:57:31.988Z,14.23
2022-12-03T18:59:58.786Z,13.80
2022-12-03T19:03:01.145Z,13.93
2022-12-03T19:05:12.189Z,12.85
2022-12-03T19:07:38.883Z,13.40
2022-12-03T19:10:05.973Z,14.25
2022-12-03T19:12:33.081Z,14.27
2022-12-03T19:14:59.795Z,12.27
2022-12-03T19:17:27.627Z,13.95
2022-12-03T19:19:54.946Z,13.95
2022-12-03T19:22:21.957Z,10.93
2022-12-03T19:24:48.485Z,12.35
2022-12-03T19:27:15.574Z,13.48
2022-12-03T19:29:42.158Z,14.75
2022-12-03T19:32:09.132Z,14.60
2022-12-03T19:34:35.992Z,14.15
2022-12-03T19:37:02.750Z,13.00
2022-12-03T19:39:29.337Z,13.65
2022-12-03T19:41:55.857Z,14.98
2022-12-03T19:44:22.352Z,14.05
2022-12-03T19:46:49.914Z,11.50
2022-12-03T19:49:18.675Z,14.00
2022-12-03T19:51:45.309Z,14.43
2022-12-03T19:54:12.645Z,13.48
2022-12-03T19:56:39.634Z,12.18
2022-12-03T19:59:06.374Z,13.65
2022-12-03T20:01:35.955Z,17.33
2022-12-03T20:04:03.440Z,13.70
2022-12-03T20:06:34.074Z,14.73
2022-12-03T20:09:03.948Z,14.10
2022-12-03T20:11:32.698Z,12.93
2022-12-03T20:14:01.782Z,14.38
2022-12-03T20:16:29.078Z,15.98
2022-12-03T20:19:00.844Z,17.25
2022-12-03T20:21:30.451Z,13.98
2022-12-03T20:23:57.133Z,12.95
2022-12-03T20:26:24.409Z,14.57
2022-12-03T20:28:53.993Z,14.57
2022-12-03T20:31:23.347Z,12.75
2022-12-03T20:33:52.482Z,12.95
2022-12-03T20:36:21.031Z,13.30
2022-12-03T20:38:49.481Z,15.18
2022-12-03T20:41:21.159Z,13.98
2022-12-03T20:43:48.142Z,12.80
2022-12-03T20:46:17.529Z,14.48
2022-12-03T20:48:44.841Z,14.38
2022-12-03T20:51:17.200Z,13.60
2022-12-03T20:53:44.004Z,12.27
2022-12-03T20:56:11.460Z,12.30
2022-12-03T20:58:38.172Z,12.45
2022-12-03T21:01:15.353Z,12.70
2022-12-03T21:03:42.649Z,12.88
2022-12-03T21:06:09.202Z,13.45
2022-12-03T21:08:41.516Z,13.88
2022-12-03T21:11:18.256Z,15.40
2022-12-03T21:13:45.406Z,14.35
2022-12-03T21:16:15.183Z,13.05
2022-12-03T21:18:43.369Z,13.45
2022-12-03T21:21:11.918Z,12.80
2022-12-03T21:23:38.713Z,14.38
2022-12-03T21:26:16.935Z,14.20
2022-12-03T21:28:45.118Z,13.15
2022-12-03T21:31:15.774Z,12.60
2022-12-03T21:33:42.982Z,12.90
2022-12-03T21:36:11.388Z,14.80
2022-12-03T21:38:38.224Z,12.80
2022-12-03T21:41:05.334Z,13.45
2022-12-03T21:43:32.705Z,14.32
2022-12-03T21:45:59.636Z,14.45
2022-12-03T21:48:30.084Z,12.82
2022-12-03T21:51:04.913Z,14.13
2022-12-03T21:53:33.397Z,12.68
2022-12-03T21:56:03.696Z,12.93
2022-12-03T21:58:30.320Z,12.55
2022-12-03T22:00:56.969Z,13.00
2022-12-03T22:03:23.625Z,12.82
2022-12-03T22:05:50.442Z,13.57
2022-12-03T22:08:17.818Z,13.57
2022-12-03T22:10:44.701Z,12.60
2022-12-03T22:13:11.367Z,12.52
2022-12-03T22:15:39.758Z,12.80
2022-12-03T22:18:06.571Z,13.52
2022-12-03T22:20:33.260Z,12.43
2022-12-03T22:23:00.264Z,13.35
2022-12-03T22:25:26.836Z,12.23
2022-12-03T22:27:53.425Z,13.32
2022-12-03T22:30:19.989Z,14.07
2022-12-03T22:32:46.642Z,14.23
2022-12-03T22:35:13.267Z,13.77
2022-12-03T22:37:39.984Z,13.60
2022-12-03T22:40:07.048Z,13.77
2022-12-03T22:42:33.710Z,13.20
2022-12-03T22:45:01.510Z,14.38
2022-12-03T22:47:28.423Z,14.05
2022-12-03T22:49:55.196Z,13.20
2022-12-03T22:52:22.007Z,13.77
2022-12-03T22:54:48.627Z,13.30
2022-12-03T22:57:18.345Z,14.45
2022-12-03T22:59:44.868Z,13.52
2022-12-03T23:02:11.559Z,14.38
2022-12-03T23:04:38.153Z,15.50
2022-12-03T23:07:06.144Z,14.45
2022-12-03T23:09:32.732Z,13.80
2022-12-03T23:11:59.321Z,15.32
2022-12-03T23:14:25.853Z,15.00
2022-12-03T23:16:52.686Z,14.27
2022-12-03T23:19:20.045Z,14.85
2022-12-03T23:21:46.589Z,14.75
2022-12-03T23:24:13.135Z,14.88
2022-12-03T23:26:39.749Z,14.00
2022-12-03T23:29:06.583Z,13.60
2022-12-03T23:31:33.921Z,13.30
2022-12-03T23:34:01.319Z,15.40
2022-12-03T23:36:30.158Z,14.10
2022-12-03T23:38:57.592Z,13.15
2022-12-03T23:41:24.986Z,13.20
2022-12-03T23:43:52.038Z,13.70
2022-12-03T23:46:22.105Z,15.02
2022-12-03T23:48:50.188Z,14.48
2022-12-03T23:51:23.330Z,13.13
2022-12-03T23:53:50.661Z,14.30
2022-12-03T23:56:20.480Z,14.10
2022-12-03T23:58:47.553Z,15.10
